Time;durP1;ratioP1;P1;durP2;ratioP2;P2;SDS_P1;SDS_P2;PMS_P1;PMS_P2;Temp;Humidity;BMP_temperature;BMP_pressure;BME280_temperature;BME280_humidity;BME280_pressure;Samples;Min_cycle;Max_cycle;Signal;HPM_P1;HPM_P2
2023/12/28 00:01:13;;;;;;;203.82;56.17;;;;;;;;;;4956605;28;20301;-45
2023/12/28 00:03:40;;;;;;;203.03;55.97;;;;;;;;;;4956709;28;20263;-45
2023/12/28 00:06:07;;;;;;;203.05;56.05;;;;;;;;;;4956909;28;20463;-44
2023/12/28 00:08:33;;;;;;;201.77;55.22;;;;;;;;;;4956835;28;20666;-45
2023/12/28 00:10:59;;;;;;;205.50;57.42;;;;;;;;;;4956309;28;20201;-45
2023/12/28 00:13:25;;;;;;;204.35;55.47;;;;;;;;;;4956653;28;20209;-45
2023/12/28 00:15:51;;;;;;;201.67;55.30;;;;;;;;;;4956870;28;20242;-44
2023/12/28 00:18:16;;;;;;;201.43;55.80;;;;;;;;;;4957009;28;20901;-44
2023/12/28 00:20:42;;;;;;;200.67;55.27;;;;;;;;;;4956378;28;21003;-44
2023/12/28 00:23:08;;;;;;;200.47;54.50;;;;;;;;;;4956311;28;20803;-43
2023/12/28 00:25:34;;;;;;;199.00;55.50;;;;;;;;;;4956526;28;20777;-44
2023/12/28 00:28:00;;;;;;;202.05;56.65;;;;;;;;;;4956366;28;20779;-45
2023/12/28 00:30:26;;;;;;;200.63;57.63;;;;;;;;;;4955940;28;20205;-44
2023/12/28 00:32:52;;;;;;;198.17;53.73;;;;;;;;;;4956229;28;20492;-45
2023/12/28 00:35:18;;;;;;;199.07;55.10;;;;;;;;;;4956311;28;20413;-44
2023/12/28 00:37:44;;;;;;;200.83;55.70;;;;;;;;;;4956706;28;20466;-45
2023/12/28 00:40:10;;;;;;;200.23;55.88;;;;;;;;;;4956188;28;20419;-45
2023/12/28 00:42:36;;;;;;;199.77;55.50;;;;;;;;;;4955892;28;20688;-45
2023/12/28 00:45:02;;;;;;;200.77;56.00;;;;;;;;;;4954915;28;20254;-44
2023/12/28 00:47:29;;;;;;;198.05;54.30;;;;;;;;;;4956103;28;20209;-45
2023/12/28 00:49:55;;;;;;;198.00;55.80;;;;;;;;;;4955809;28;20538;-44
2023/12/28 00:52:21;;;;;;;198.10;54.88;;;;;;;;;;4955897;28;20201;-44
2023/12/28 00:54:47;;;;;;;198.47;54.80;;;;;;;;;;4956288;28;20573;-45
2023/12/28 00:57:13;;;;;;;196.67;53.47;;;;;;;;;;4956163;28;20805;-45
2023/12/28 00:59:39;;;;;;;199.17;54.80;;;;;;;;;;4955950;28;20781;-45
2023/12/28 01:02:05;;;;;;;200.40;56.07;;;;;;;;;;4958162;28;20852;-44
2023/12/28 01:04:31;;;;;;;196.47;54.23;;;;;;;;;;4955550;28;20442;-44
2023/12/28 01:06:58;;;;;;;193.27;52.47;;;;;;;;;;4954058;28;20504;-44
2023/12/28 01:09:24;;;;;;;199.65;57.40;;;;;;;;;;4955703;28;20928;-44
2023/12/28 01:11:50;;;;;;;196.17;55.53;;;;;;;;;;4955495;28;20197;-44
2023/12/28 01:14:16;;;;;;;195.37;55.07;;;;;;;;;;4955105;29;20865;-44
2023/12/28 01:16:44;;;;;;;196.77;56.67;;;;;;;;;;4955533;28;20807;-44
2023/12/28 01:19:10;;;;;;;197.80;56.58;;;;;;;;;;4968389;28;20897;-44
2023/12/28 01:21:36;;;;;;;193.37;54.57;;;;;;;;;;4965242;28;20344;-45
2023/12/28 01:24:02;;;;;;;189.90;54.63;;;;;;;;;;4960726;28;20416;-44
2023/12/28 01:26:28;;;;;;;189.85;56.30;;;;;;;;;;4973489;28;20197;-44
2023/12/28 01:28:54;;;;;;;191.80;53.95;;;;;;;;;;4955519;28;20185;-44
2023/12/28 01:31:20;;;;;;;156.90;45.53;;;;;;;;;;4971779;28;20280;-44
2023/12/28 01:33:46;;;;;;;155.88;45.13;;;;;;;;;;4961802;28;20262;-44
2023/12/28 01:36:21;;;;;;;195.70;55.60;;;;;;;;;;4964052;28;20188;-44
2023/12/28 01:38:47;;;;;;;155.98;46.15;;;;;;;;;;4968489;28;20182;-45
2023/12/28 01:41:15;;;;;;;192.13;54.83;;;;;;;;;;4952816;28;20197;-44
2023/12/28 01:43:42;;;;;;;157.25;45.58;;;;;;;;;;4955054;28;20948;-44
2023/12/28 01:46:11;;;;;;;195.15;57.80;;;;;;;;;;4953382;29;20651;-44
2023/12/28 01:48:37;;;;;;;190.57;53.88;;;;;;;;;;4955057;28;20205;-44
2023/12/28 01:51:03;;;;;;;194.55;56.30;;;;;;;;;;4954835;28;20268;-44
2023/12/28 01:53:29;;;;;;;195.63;56.83;;;;;;;;;;4954931;28;20324;-45
2023/12/28 01:55:56;;;;;;;158.38;47.42;;;;;;;;;;4954698;28;20634;-44
2023/12/28 01:58:22;;;;;;;197.25;55.95;;;;;;;;;;4954826;28;20181;-44
2023/12/28 02:00:49;;;;;;;202.60;61.40;;;;;;;;;;4954026;28;20628;-44
2023/12/28 02:03:15;;;;;;;150.38;45.15;;;;;;;;;;4954267;28;20186;-44
2023/12/28 02:05:41;;;;;;;149.23;46.33;;;;;;;;;;4954190;28;20205;-44
2023/12/28 02:08:07;;;;;;;197.77;57.70;;;;;;;;;;4954557;28;20425;-44
2023/12/28 02:10:33;;;;;;;199.77;59.87;;;;;;;;;;4954279;28;20844;-44
2023/12/28 02:12:59;;;;;;;198.87;57.47;;;;;;;;;;4954398;28;20430;-44
2023/12/28 02:15:25;;;;;;;151.27;45.23;;;;;;;;;;4954357;28;20500;-45
2023/12/28 02:17:55;;;;;;;196.87;54.80;;;;;;;;;;4954469;28;20425;-44
2023/12/28 02:20:22;;;;;;;199.82;58.22;;;;;;;;;;4946741;28;20488;-44
2023/12/28 02:22:48;;;;;;;150.25;44.45;;;;;;;;;;4954366;28;20272;-45
2023/12/28 02:25:14;;;;;;;193.57;56.80;;;;;;;;;;4954261;28;20265;-45
2023/12/28 02:27:41;;;;;;;152.80;46.03;;;;;;;;;;4954377;28;20418;-45
2023/12/28 02:30:08;;;;;;;148.02;44.85;;;;;;;;;;4953845;28;20689;-45
2023/12/28 02:32:40;;;;;;;147.45;44.90;;;;;;;;;;4954199;28;20202;-45
2023/12/28 02:35:18;;;;;;;155.07;47.92;;;;;;;;;;4954122;28;20685;-45
2023/12/28 02:37:45;;;;;;;190.60;56.70;;;;;;;;;;4954426;28;20676;-45
2023/12/28 02:40:12;;;;;;;146.23;47.97;;;;;;;;;;4955922;28;20174;-45
2023/12/28 02:42:38;;;;;;;150.77;46.97;;;;;;;;;;4973087;28;20794;-44
2023/12/28 02:45:04;;;;;;;147.68;46.90;;;;;;;;;;4955988;28;20201;-44
2023/12/28 02:47:30;;;;;;;139.55;45.28;;;;;;;;;;4954521;28;20185;-44
2023/12/28 02:49:59;;;;;;;145.17;47.73;;;;;;;;;;4963523;28;20288;-45
2023/12/28 02:52:24;;;;;;;136.52;44.35;;;;;;;;;;4967014;28;20525;-44
2023/12/28 02:54:50;;;;;;;131.77;46.50;;;;;;;;;;4953501;28;20261;-44
2023/12/28 02:57:18;;;;;;;145.13;48.03;;;;;;;;;;4954042;28;20410;-45
2023/12/28 02:59:45;;;;;;;137.77;45.42;;;;;;;;;;4936444;28;20501;-44
2023/12/28 03:02:11;;;;;;;179.27;56.65;;;;;;;;;;4947772;28;20311;-44
2023/12/28 03:04:36;;;;;;;142.23;45.03;;;;;;;;;;4944234;28;20191;-44
2023/12/28 03:07:02;;;;;;;147.63;48.37;;;;;;;;;;4940167;29;20933;-44
2023/12/28 03:09:29;;;;;;;138.47;44.97;;;;;;;;;;4951492;28;20965;-44
2023/12/28 03:11:54;;;;;;;185.73;59.22;;;;;;;;;;4934293;29;20481;-45
2023/12/28 03:14:21;;;;;;;146.30;46.80;;;;;;;;;;4951285;29;20655;-44
2023/12/28 03:16:47;;;;;;;149.35;46.95;;;;;;;;;;4940699;28;20772;-44
2023/12/28 03:19:13;;;;;;;149.05;47.15;;;;;;;;;;4943519;29;20368;-44
2023/12/28 03:21:42;;;;;;;139.87;44.53;;;;;;;;;;4948248;28;20269;-45
2023/12/28 03:24:08;;;;;;;135.20;45.72;;;;;;;;;;4935720;29;20410;-45
2023/12/28 03:26:38;;;;;;;141.57;45.63;;;;;;;;;;4953758;28;20642;-44
2023/12/28 03:29:05;;;;;;;142.82;46.33;;;;;;;;;;4936169;28;20217;-44
2023/12/28 03:31:31;;;;;;;145.93;47.97;;;;;;;;;;4947565;28;20222;-45
2023/12/28 03:33:58;;;;;;;186.90;57.13;;;;;;;;;;4944317;28;20185;-44
2023/12/28 03:36:24;;;;;;;143.10;45.42;;;;;;;;;;4939958;29;20936;-44
2023/12/28 03:38:50;;;;;;;141.77;46.87;;;;;;;;;;4951611;28;20253;-44
2023/12/28 03:41:19;;;;;;;148.93;48.17;;;;;;;;;;4934190;29;20478;-45
2023/12/28 03:43:45;;;;;;;150.65;47.80;;;;;;;;;;4951591;29;20437;-44
2023/12/28 03:46:11;;;;;;;151.55;47.92;;;;;;;;;;4939874;28;20526;-44
2023/12/28 03:48:37;;;;;;;152.13;48.55;;;;;;;;;;4943769;29;20232;-44
2023/12/28 03:51:04;;;;;;;154.32;48.30;;;;;;;;;;4947411;28;20736;-44
2023/12/28 03:53:31;;;;;;;143.45;46.53;;;;;;;;;;4935741;29;20187;-44
2023/12/28 03:55:57;;;;;;;142.10;45.83;;;;;;;;;;4953530;28;20196;-44
2023/12/28 03:58:23;;;;;;;149.73;47.20;;;;;;;;;;4950963;28;20210;-44
2023/12/28 04:00:49;;;;;;;188.27;61.60;;;;;;;;;;4940003;28;20270;-44
2023/12/28 04:03:15;;;;;;;151.03;48.03;;;;;;;;;;4943222;29;20430;-44
2023/12/28 04:05:41;;;;;;;148.67;47.53;;;;;;;;;;4947833;28;20438;-44
2023/12/28 04:08:07;;;;;;;186.85;61.10;;;;;;;;;;4935357;29;20407;-43
2023/12/28 04:10:34;;;;;;;145.05;49.03;;;;;;;;;;4953011;28;20249;-44
2023/12/28 04:13:00;;;;;;;150.85;49.17;;;;;;;;;;4936317;28;20619;-44
2023/12/28 04:15:26;;;;;;;186.20;60.58;;;;;;;;;;4946842;29;20189;-44
2023/12/28 04:17:52;;;;;;;183.55;57.00;;;;;;;;;;4944244;28;20210;-44
2023/12/28 04:20:18;;;;;;;151.15;50.13;;;;;;;;;;4941047;29;20624;-44
2023/12/28 04:22:44;;;;;;;150.70;51.27;;;;;;;;;;4955410;28;20276;-45
2023/12/28 04:25:10;;;;;;;151.18;49.83;;;;;;;;;;4937656;29;20398;-44
2023/12/28 04:27:36;;;;;;;149.43;48.15;;;;;;;;;;4953717;29;20550;-44
2023/12/28 04:30:04;;;;;;;147.85;47.38;;;;;;;;;;4944094;28;20183;-44
2023/12/28 04:32:30;;;;;;;133.13;44.97;;;;;;;;;;4945639;29;20564;-44
2023/12/28 04:34:56;;;;;;;145.60;47.83;;;;;;;;;;4951647;28;20182;-44
2023/12/28 04:37:22;;;;;;;149.38;52.22;;;;;;;;;;4937951;29;20406;-44
2023/12/28 04:39:48;;;;;;;145.30;49.40;;;;;;;;;;4956483;28;20221;-44
2023/12/28 04:42:14;;;;;;;140.10;50.17;;;;;;;;;;4940015;28;20450;-44
2023/12/28 04:44:40;;;;;;;140.53;48.73;;;;;;;;;;4949185;29;20422;-44
2023/12/28 04:47:07;;;;;;;136.77;46.90;;;;;;;;;;4948166;28;20434;-44
2023/12/28 04:49:33;;;;;;;144.30;49.33;;;;;;;;;;4941126;29;20549;-44
2023/12/28 04:52:00;;;;;;;147.20;48.47;;;;;;;;;;4955488;28;20202;-44
2023/12/28 04:54:26;;;;;;;142.68;48.85;;;;;;;;;;4937017;29;20759;-44
2023/12/28 04:56:52;;;;;;;152.50;52.95;;;;;;;;;;4952469;29;20170;-44
2023/12/28 04:59:18;;;;;;;151.18;50.22;;;;;;;;;;4944372;28;20647;-44
2023/12/28 05:01:44;;;;;;;149.70;50.17;;;;;;;;;;4944235;28;20210;-44
2023/12/28 05:04:10;;;;;;;156.07;55.33;;;;;;;;;;4951666;28;20515;-44
2023/12/28 05:06:36;;;;;;;151.23;51.00;;;;;;;;;;4936856;29;20183;-44
2023/12/28 05:09:02;;;;;;;149.60;52.20;;;;;;;;;;4955777;29;20170;-45
2023/12/28 05:11:28;;;;;;;184.80;62.73;;;;;;;;;;4940108;28;20994;-44
2023/12/28 05:13:54;;;;;;;149.33;50.67;;;;;;;;;;4947814;29;20414;-44
2023/12/28 05:16:20;;;;;;;150.47;54.40;;;;;;;;;;4948341;28;20420;-44
2023/12/28 05:18:47;;;;;;;151.77;55.05;;;;;;;;;;4939753;29;20410;-44
2023/12/28 05:21:13;;;;;;;153.90;54.33;;;;;;;;;;4955488;28;20221;-44
2023/12/28 05:23:39;;;;;;;158.88;54.85;;;;;;;;;;4936817;28;20230;-44
2023/12/28 05:26:06;;;;;;;157.77;55.00;;;;;;;;;;4951187;29;20178;-44
2023/12/28 05:28:32;;;;;;;198.43;70.78;;;;;;;;;;4944475;28;20187;-44
2023/12/28 05:31:01;;;;;;;156.30;52.55;;;;;;;;;;4942236;28;20686;-44
2023/12/28 05:33:27;;;;;;;152.90;53.13;;;;;;;;;;4951840;28;20202;-44
2023/12/28 05:35:53;;;;;;;155.95;53.75;;;;;;;;;;4936365;29;20171;-44
2023/12/28 05:38:19;;;;;;;154.65;53.33;;;;;;;;;;4936828;29;20175;-44
2023/12/28 05:40:45;;;;;;;157.40;55.38;;;;;;;;;;4950688;29;20285;-45
2023/12/28 05:43:11;;;;;;;155.87;56.17;;;;;;;;;;4944303;28;20692;-45
2023/12/28 05:45:37;;;;;;;153.80;53.75;;;;;;;;;;4942905;29;20418;-45
2023/12/28 05:48:03;;;;;;;140.00;51.77;;;;;;;;;;4952126;28;20193;-44
2023/12/28 05:50:29;;;;;;;144.25;55.30;;;;;;;;;;4935731;29;20506;-44
2023/12/28 05:52:55;;;;;;;141.70;51.83;;;;;;;;;;4954018;28;20225;-45
2023/12/28 05:55:21;;;;;;;144.03;52.37;;;;;;;;;;4940680;28;20660;-44
2023/12/28 05:57:47;;;;;;;146.60;54.25;;;;;;;;;;4948827;28;20438;-44
2023/12/28 06:00:14;;;;;;;151.73;56.17;;;;;;;;;;4953839;28;20189;-44
2023/12/28 06:02:40;;;;;;;151.32;55.00;;;;;;;;;;4954331;28;20504;-44
2023/12/28 06:05:06;;;;;;;150.33;54.20;;;;;;;;;;4954534;28;20622;-44
2023/12/28 06:07:33;;;;;;;147.90;50.97;;;;;;;;;;4957173;28;20415;-44
2023/12/28 06:09:59;;;;;;;144.35;52.83;;;;;;;;;;4956165;28;20181;-44
2023/12/28 06:12:25;;;;;;;136.02;51.20;;;;;;;;;;4954191;28;20289;-44
2023/12/28 06:14:51;;;;;;;144.30;53.17;;;;;;;;;;4954385;28;20177;-44
2023/12/28 06:17:18;;;;;;;141.97;52.07;;;;;;;;;;4954412;28;20182;-44
2023/12/28 06:19:44;;;;;;;113.95;44.47;;;;;;;;;;4954437;28;20398;-44
2023/12/28 06:22:10;;;;;;;125.30;49.33;;;;;;;;;;4954014;28;20693;-44
2023/12/28 06:24:40;;;;;;;132.70;57.07;;;;;;;;;;4954634;28;20402;-44
2023/12/28 06:27:06;;;;;;;118.22;48.90;;;;;;;;;;4954322;28;20764;-44
2023/12/28 06:29:32;;;;;;;127.47;52.17;;;;;;;;;;4954104;28;20275;-44
2023/12/28 06:31:58;;;;;;;123.40;51.57;;;;;;;;;;4953823;28;20242;-44
2023/12/28 06:34:24;;;;;;;121.23;48.83;;;;;;;;;;4954216;28;20410;-44
2023/12/28 06:36:50;;;;;;;121.33;48.13;;;;;;;;;;4954178;28;20407;-44
2023/12/28 06:39:16;;;;;;;117.33;46.57;;;;;;;;;;4954140;28;20895;-44
2023/12/28 06:41:42;;;;;;;119.13;48.07;;;;;;;;;;4953799;28;20953;-44
2023/12/28 06:44:08;;;;;;;115.60;49.93;;;;;;;;;;4953105;28;20929;-44
2023/12/28 06:46:34;;;;;;;120.65;49.75;;;;;;;;;;4954000;28;20421;-44
2023/12/28 06:49:00;;;;;;;126.20;50.67;;;;;;;;;;4953809;28;20182;-44
2023/12/28 06:51:26;;;;;;;144.45;58.38;;;;;;;;;;4953569;28;20461;-44
2023/12/28 06:53:52;;;;;;;124.88;49.58;;;;;;;;;;4953731;28;20178;-44
2023/12/28 06:56:18;;;;;;;125.53;48.15;;;;;;;;;;4953813;28;20170;-44
2023/12/28 06:58:44;;;;;;;125.10;49.85;;;;;;;;;;4953719;28;20203;-44
2023/12/28 07:01:11;;;;;;;124.33;47.67;;;;;;;;;;4954336;28;20220;-44
2023/12/28 07:03:37;;;;;;;128.93;50.97;;;;;;;;;;4953710;28;20410;-44
2023/12/28 07:06:03;;;;;;;125.25;48.03;;;;;;;;;;4953694;28;20639;-44
2023/12/28 07:08:29;;;;;;;129.90;51.42;;;;;;;;;;4953666;28;20276;-44
2023/12/28 07:10:57;;;;;;;145.35;56.00;;;;;;;;;;4953308;28;20202;-44
2023/12/28 07:13:23;;;;;;;127.05;48.30;;;;;;;;;;4953406;28;20186;-44
2023/12/28 07:15:49;;;;;;;127.13;48.50;;;;;;;;;;4953689;28;20182;-44
2023/12/28 07:18:15;;;;;;;129.25;50.97;;;;;;;;;;4953573;28;20421;-44
2023/12/28 07:20:41;;;;;;;124.90;49.63;;;;;;;;;;4953328;28;20249;-44
2023/12/28 07:23:08;;;;;;;144.73;55.30;;;;;;;;;;4953414;28;20276;-44
2023/12/28 07:25:34;;;;;;;128.35;50.08;;;;;;;;;;4953552;28;20441;-44
2023/12/28 07:28:00;;;;;;;123.43;49.07;;;;;;;;;;4953280;28;20236;-44
2023/12/28 07:30:26;;;;;;;134.95;53.53;;;;;;;;;;4953128;28;20445;-44
2023/12/28 07:32:52;;;;;;;128.93;47.70;;;;;;;;;;4953391;28;20267;-44
2023/12/28 07:35:18;;;;;;;134.03;51.40;;;;;;;;;;4953587;28;20215;-44
2023/12/28 07:37:44;;;;;;;132.02;49.55;;;;;;;;;;4954270;28;20481;-44
2023/12/28 07:40:12;;;;;;;133.88;50.42;;;;;;;;;;4972902;28;20189;-44
2023/12/28 07:42:38;;;;;;;125.95;46.70;;;;;;;;;;4955810;28;20205;-44
2023/12/28 07:45:04;;;;;;;130.33;47.70;;;;;;;;;;4965930;28;20178;-44
2023/12/28 07:47:30;;;;;;;142.85;51.30;;;;;;;;;;4964194;28;20410;-45
2023/12/28 07:49:56;;;;;;;134.97;50.00;;;;;;;;;;4957856;28;20231;-44
2023/12/28 07:52:22;;;;;;;139.70;52.85;;;;;;;;;;4971629;28;20965;-44
2023/12/28 07:54:48;;;;;;;143.75;51.97;;;;;;;;;;4955183;28;20194;-45
2023/12/28 07:57:14;;;;;;;142.02;53.17;;;;;;;;;;4967551;28;20233;-44
2023/12/28 07:59:40;;;;;;;134.90;51.63;;;;;;;;;;4969052;28;20181;-44
2023/12/28 08:02:08;;;;;;;131.07;48.67;;;;;;;;;;4968008;28;20473;-44
2023/12/28 08:04:34;;;;;;;131.68;50.35;;;;;;;;;;4957326;28;20429;-44
2023/12/28 08:07:00;;;;;;;129.87;48.27;;;;;;;;;;4957162;28;20541;-44
2023/12/28 08:09:26;;;;;;;128.17;47.57;;;;;;;;;;4976305;28;20778;-44
2023/12/28 08:11:52;;;;;;;134.80;49.67;;;;;;;;;;4959976;28;20492;-44
2023/12/28 08:14:19;;;;;;;126.17;46.60;;;;;;;;;;4968635;28;20190;-44
2023/12/28 08:16:45;;;;;;;133.23;50.03;;;;;;;;;;4960257;28;20771;-44
2023/12/28 08:19:10;;;;;;;130.60;50.43;;;;;;;;;;4941382;29;20180;-44
2023/12/28 08:21:36;;;;;;;134.97;51.43;;;;;;;;;;4956427;28;20845;-44
2023/12/28 08:24:03;;;;;;;134.47;49.73;;;;;;;;;;4937549;28;20778;-44
2023/12/28 08:26:29;;;;;;;129.82;49.72;;;;;;;;;;4952568;29;20961;-44
2023/12/28 08:28:55;;;;;;;129.57;51.53;;;;;;;;;;4945308;28;20179;-44
2023/12/28 08:31:21;;;;;;;132.63;51.97;;;;;;;;;;4944549;28;20461;-44
2023/12/28 08:33:47;;;;;;;150.40;60.53;;;;;;;;;;4953041;28;20262;-44
2023/12/28 08:36:13;;;;;;;125.77;48.57;;;;;;;;;;4937442;29;20548;-44
2023/12/28 08:38:39;;;;;;;129.82;51.40;;;;;;;;;;4955834;29;20466;-44
2023/12/28 08:41:08;;;;;;;129.05;50.10;;;;;;;;;;4941427;28;20630;-44
2023/12/28 08:43:35;;;;;;;127.85;52.58;;;;;;;;;;4948277;29;20220;-44
2023/12/28 08:46:01;;;;;;;126.57;53.03;;;;;;;;;;4949273;28;20540;-44
2023/12/28 08:48:27;;;;;;;123.70;50.53;;;;;;;;;;4940263;29;20179;-44
2023/12/28 08:50:53;;;;;;;122.50;52.10;;;;;;;;;;4956224;28;20690;-44
2023/12/28 08:53:19;;;;;;;125.37;51.17;;;;;;;;;;4937778;28;20931;-44
2023/12/28 08:55:44;;;;;;;126.00;53.63;;;;;;;;;;4951482;29;20895;-44
2023/12/28 08:58:10;;;;;;;120.17;52.67;;;;;;;;;;4945565;28;20935;-45
2023/12/28 09:00:36;;;;;;;121.72;51.67;;;;;;;;;;4943388;29;21015;-44
2023/12/28 09:03:02;;;;;;;135.47;58.57;;;;;;;;;;4953498;28;20200;-44
2023/12/28 09:05:28;;;;;;;126.45;54.60;;;;;;;;;;4936181;29;20422;-44
2023/12/28 09:07:54;;;;;;;143.52;66.13;;;;;;;;;;4951533;29;20672;-44
2023/12/28 09:10:20;;;;;;;122.47;54.60;;;;;;;;;;4955477;28;20175;-44
2023/12/28 09:12:46;;;;;;;121.10;52.27;;;;;;;;;;4955696;28;20501;-44
2023/12/28 09:15:12;;;;;;;126.43;55.22;;;;;;;;;;4955689;28;20441;-44
2023/12/28 09:17:39;;;;;;;120.28;52.20;;;;;;;;;;4955746;28;20203;-44
2023/12/28 09:20:06;;;;;;;140.60;59.67;;;;;;;;;;4955690;28;20182;-44
2023/12/28 09:22:32;;;;;;;117.07;48.78;;;;;;;;;;4953649;28;20221;-44
2023/12/28 09:24:58;;;;;;;123.65;51.78;;;;;;;;;;4955284;28;20646;-44
2023/12/28 09:27:25;;;;;;;120.60;51.47;;;;;;;;;;4955324;28;20325;-44
2023/12/28 09:29:51;;;;;;;113.43;51.05;;;;;;;;;;4955305;28;20464;-44
2023/12/28 09:32:17;;;;;;;114.33;52.83;;;;;;;;;;4955165;28;20216;-44
2023/12/28 09:34:43;;;;;;;118.05;52.80;;;;;;;;;;4961489;28;20405;-44
2023/12/28 09:37:09;;;;;;;111.80;49.03;;;;;;;;;;4971782;28;20181;-44
2023/12/28 09:39:35;;;;;;;111.23;47.40;;;;;;;;;;4955582;28;20176;-44
2023/12/28 09:42:05;;;;;;;113.53;50.53;;;;;;;;;;4972787;28;20436;-44
2023/12/28 09:44:31;;;;;;;117.38;51.72;;;;;;;;;;4959836;28;20418;-44
2023/12/28 09:46:57;;;;;;;114.60;50.30;;;;;;;;;;4965493;28;20179;-44
2023/12/28 09:49:24;;;;;;;119.13;50.60;;;;;;;;;;4967666;28;20650;-44
2023/12/28 09:51:50;;;;;;;107.00;50.55;;;;;;;;;;4957141;28;20214;-44
2023/12/28 09:54:18;;;;;;;94.90;48.60;;;;;;;;;;4974286;28;20166;-44
2023/12/28 09:56:44;;;;;;;105.22;58.58;;;;;;;;;;4954499;28;20190;-44
2023/12/28 09:59:10;;;;;;;105.22;58.42;;;;;;;;;;4955274;28;20176;-44
2023/12/28 10:01:36;;;;;;;97.45;57.67;;;;;;;;;;4964867;28;20565;-44
2023/12/28 10:04:07;;;;;;;95.17;53.63;;;;;;;;;;4967866;28;20194;-44
2023/12/28 10:06:33;;;;;;;81.53;52.78;;;;;;;;;;4957766;28;20420;-44
2023/12/28 10:08:59;;;;;;;74.67;44.47;;;;;;;;;;4974042;28;20170;-44
2023/12/28 10:11:26;;;;;;;87.57;54.00;;;;;;;;;;4954059;28;20473;-44
2023/12/28 10:13:53;;;;;;;88.72;52.78;;;;;;;;;;4969007;28;20905;-44
2023/12/28 10:16:19;;;;;;;83.15;53.60;;;;;;;;;;4962877;28;20226;-44
2023/12/28 10:18:45;;;;;;;79.17;53.03;;;;;;;;;;4959579;28;20209;-44
2023/12/28 10:21:12;;;;;;;82.20;52.88;;;;;;;;;;4970696;28;20423;-44
2023/12/28 10:23:39;;;;;;;70.20;44.75;;;;;;;;;;4954569;28;20204;-44
2023/12/28 10:26:05;;;;;;;75.70;50.33;;;;;;;;;;4954129;28;20190;-44
2023/12/28 10:28:37;;;;;;;78.97;44.80;;;;;;;;;;4939695;28;20182;-44
2023/12/28 10:31:04;;;;;;;81.75;47.60;;;;;;;;;;4946076;29;20217;-44
2023/12/28 10:33:35;;;;;;;101.13;56.70;;;;;;;;;;4946582;28;20195;-44
2023/12/28 10:36:04;;;;;;;94.13;49.95;;;;;;;;;;4939086;29;20170;-44
2023/12/28 10:38:32;;;;;;;113.85;58.13;;;;;;;;;;4953543;28;20175;-44
2023/12/28 10:40:58;;;;;;;101.47;49.85;;;;;;;;;;4934890;29;20194;-44
2023/12/28 10:43:24;;;;;;;97.70;48.30;;;;;;;;;;4950807;29;20293;-44
2023/12/28 10:45:52;;;;;;;105.65;51.83;;;;;;;;;;4941590;28;20422;-44
2023/12/28 10:48:22;;;;;;;112.03;59.75;;;;;;;;;;4943014;29;20178;-43
2023/12/28 10:50:50;;;;;;;103.65;57.10;;;;;;;;;;4948554;28;20220;-44
2023/12/28 10:53:34;;;;;;;106.82;60.42;;;;;;;;;;4935933;29;20603;-44
2023/12/28 10:56:19;;;;;;;93.85;53.38;;;;;;;;;;4953761;28;20259;-44
2023/12/28 10:58:48;;;;;;;96.13;53.55;;;;;;;;;;4952430;29;20718;-44
2023/12/28 11:01:17;;;;;;;79.93;44.95;;;;;;;;;;4935709;28;20188;-44
2023/12/28 11:03:46;;;;;;;104.03;56.75;;;;;;;;;;4948347;29;20181;-43
2023/12/28 11:06:13;;;;;;;106.35;56.90;;;;;;;;;;4942741;28;20183;-44
2023/12/28 11:08:44;;;;;;;115.10;58.38;;;;;;;;;;4934968;29;20192;-44
2023/12/28 11:11:10;;;;;;;108.57;59.17;;;;;;;;;;4937872;28;20201;-44
2023/12/28 11:13:36;;;;;;;120.15;58.97;;;;;;;;;;4953469;28;20186;-44
2023/12/28 11:16:02;;;;;;;114.10;59.22;;;;;;;;;;4953303;29;20186;-44
2023/12/28 11:18:28;;;;;;;118.82;63.60;;;;;;;;;;4952430;28;20270;-44
2023/12/28 11:20:54;;;;;;;106.20;50.40;;;;;;;;;;4942175;28;20184;-44
2023/12/28 11:23:21;;;;;;;105.40;52.95;;;;;;;;;;4941383;29;20251;-44
2023/12/28 11:25:47;;;;;;;109.32;59.15;;;;;;;;;;4950313;28;20246;-44
2023/12/28 11:28:14;;;;;;;109.72;58.70;;;;;;;;;;4934568;29;20178;-44
2023/12/28 11:30:42;;;;;;;95.70;51.75;;;;;;;;;;4940202;29;20200;-44
2023/12/28 11:33:10;;;;;;;100.82;60.72;;;;;;;;;;4955521;29;20193;-44
2023/12/28 11:35:37;;;;;;;98.13;56.05;;;;;;;;;;4959398;28;20177;-43
2023/12/28 11:38:06;;;;;;;90.20;54.53;;;;;;;;;;4952313;28;20262;-44
2023/12/28 11:40:32;;;;;;;80.63;50.53;;;;;;;;;;4944246;29;20218;-44
2023/12/28 11:42:58;;;;;;;83.07;55.37;;;;;;;;;;4959341;28;20198;-44
2023/12/28 11:45:25;;;;;;;75.53;47.50;;;;;;;;;;4940635;28;20425;-44
2023/12/28 11:48:01;;;;;;;87.70;56.42;;;;;;;;;;4955871;29;20421;-44
2023/12/28 11:50:27;;;;;;;80.07;51.95;;;;;;;;;;4946874;28;20172;-44
2023/12/28 11:52:53;;;;;;;86.57;53.55;;;;;;;;;;4949061;28;20240;-44
2023/12/28 11:55:25;;;;;;;86.03;55.35;;;;;;;;;;4953478;28;20192;-44
2023/12/28 11:57:52;;;;;;;74.60;51.85;;;;;;;;;;4949387;29;20648;-44
2023/12/28 12:00:20;;;;;;;79.80;55.88;;;;;;;;;;4940162;29;20179;-44
2023/12/28 12:02:46;;;;;;;68.72;47.65;;;;;;;;;;4957050;28;20756;-44
2023/12/28 12:05:12;;;;;;;106.05;58.05;;;;;;;;;;4945864;28;20204;-44
2023/12/28 12:07:39;;;;;;;114.47;52.97;;;;;;;;;;4950392;29;20474;-44
2023/12/28 12:10:05;;;;;;;116.75;51.45;;;;;;;;;;4953550;28;20207;-44
2023/12/28 12:12:32;;;;;;;116.88;53.15;;;;;;;;;;4940195;29;20576;-44
2023/12/28 12:14:58;;;;;;;118.75;53.42;;;;;;;;;;4940431;29;20166;-44
2023/12/28 12:17:25;;;;;;;134.40;62.20;;;;;;;;;;4940616;29;20194;-44
2023/12/28 12:19:55;;;;;;;118.95;54.05;;;;;;;;;;4940770;29;20180;-44
2023/12/28 12:22:21;;;;;;;123.18;55.20;;;;;;;;;;4949645;28;20196;-44
2023/12/28 12:24:48;;;;;;;129.02;56.92;;;;;;;;;;4959431;28;20176;-44
2023/12/28 12:27:14;;;;;;;128.93;57.65;;;;;;;;;;4957259;28;20171;-44
2023/12/28 12:29:40;;;;;;;132.70;58.03;;;;;;;;;;4940255;29;20178;-44
2023/12/28 12:32:07;;;;;;;131.23;56.55;;;;;;;;;;4957056;28;20477;-44
2023/12/28 12:34:33;;;;;;;131.50;59.70;;;;;;;;;;4945699;28;20263;-44
2023/12/28 12:37:00;;;;;;;137.07;59.15;;;;;;;;;;4949746;29;20294;-44
2023/12/28 12:39:26;;;;;;;157.68;65.00;;;;;;;;;;4953538;28;20237;-44
2023/12/28 12:41:52;;;;;;;139.25;58.30;;;;;;;;;;4937526;29;20714;-44
2023/12/28 12:44:20;;;;;;;128.80;57.08;;;;;;;;;;4937198;29;20176;-44
2023/12/28 12:46:46;;;;;;;113.85;51.20;;;;;;;;;;4954349;29;20188;-44
2023/12/28 12:49:12;;;;;;;121.13;55.60;;;;;;;;;;4942663;28;20196;-44
2023/12/28 12:51:40;;;;;;;121.63;55.50;;;;;;;;;;4945778;28;20470;-45
2023/12/28 12:54:06;;;;;;;123.97;56.38;;;;;;;;;;4955433;28;20422;-44
2023/12/28 12:56:32;;;;;;;122.67;55.37;;;;;;;;;;4954418;28;20179;-44
2023/12/28 12:58:58;;;;;;;125.25;54.70;;;;;;;;;;4956133;28;20406;-44
2023/12/28 13:01:25;;;;;;;125.33;57.23;;;;;;;;;;4938535;28;20275;-44
2023/12/28 13:03:51;;;;;;;125.68;56.92;;;;;;;;;;4951082;29;20410;-44
2023/12/28 13:06:17;;;;;;;117.57;54.70;;;;;;;;;;4948654;28;20207;-44
2023/12/28 13:08:43;;;;;;;122.82;54.97;;;;;;;;;;4946536;28;20238;-44
2023/12/28 13:11:09;;;;;;;126.03;57.53;;;;;;;;;;4939160;29;20197;-44
2023/12/28 13:13:36;;;;;;;121.45;55.75;;;;;;;;;;4955997;28;20704;-45
2023/12/28 13:16:05;;;;;;;120.90;54.20;;;;;;;;;;4938763;28;20214;-44
2023/12/28 13:18:32;;;;;;;120.05;54.72;;;;;;;;;;4949793;29;20187;-44
2023/12/28 13:20:58;;;;;;;119.97;53.90;;;;;;;;;;4945817;28;20171;-45
2023/12/28 13:23:24;;;;;;;119.90;53.23;;;;;;;;;;4941812;29;20571;-44
2023/12/28 13:25:51;;;;;;;122.28;55.85;;;;;;;;;;4953721;28;20409;-44
2023/12/28 13:28:18;;;;;;;125.45;59.25;;;;;;;;;;4955727;28;20168;-44
2023/12/28 13:30:44;;;;;;;131.00;61.83;;;;;;;;;;4936573;28;20206;-44
2023/12/28 13:33:10;;;;;;;133.73;58.07;;;;;;;;;;4947375;29;20269;-44
2023/12/28 13:35:35;;;;;;;156.40;64.17;;;;;;;;;;4945827;28;20409;-43
2023/12/28 13:38:01;;;;;;;134.27;57.10;;;;;;;;;;4940930;28;20486;-44
2023/12/28 13:40:29;;;;;;;148.10;64.13;;;;;;;;;;4953485;28;20395;-44
2023/12/28 13:42:55;;;;;;;130.45;56.65;;;;;;;;;;4936231;29;20420;-44
2023/12/28 13:45:21;;;;;;;128.80;58.53;;;;;;;;;;4951564;29;20189;-43
2023/12/28 13:47:47;;;;;;;152.80;65.43;;;;;;;;;;4942602;28;20760;-44
2023/12/28 13:50:13;;;;;;;129.63;56.13;;;;;;;;;;4945044;29;20456;-44
2023/12/28 13:52:39;;;;;;;135.60;57.13;;;;;;;;;;4949564;28;20470;-44
2023/12/28 13:55:05;;;;;;;135.45;56.75;;;;;;;;;;4936892;29;20418;-44
2023/12/28 13:57:31;;;;;;;126.60;54.28;;;;;;;;;;4955261;28;20166;-44
2023/12/28 14:00:00;;;;;;;137.23;57.42;;;;;;;;;;4939103;28;20182;-44
2023/12/28 14:02:26;;;;;;;157.40;66.03;;;;;;;;;;4948063;28;20679;-44